sensor_id;sensor_type;location;lat;lon;timestamp;pressure;altitude;pressure_sealevel;temperature;humidity
78383;BME280;67668;52.294;4.692;2023-02-12T00:00:47;103914.88;;;9.39;75.10
78383;BME280;67668;52.294;4.692;2023-02-12T00:03:12;103928.94;;;9.40;75.04
78383;BME280;67668;52.294;4.692;2023-02-12T00:05:38;103922.00;;;9.37;74.82
78383;BME280;67668;52.294;4.692;2023-02-12T00:08:04;103926.44;;;9.37;75.02
78383;BME280;67668;52.294;4.692;2023-02-12T00:10:30;103932.56;;;9.37;75.19
78383;BME280;67668;52.294;4.692;2023-02-12T00:12:56;103927.34;;;9.35;75.34
78383;BME280;67668;52.294;4.692;2023-02-12T00:15:21;103929.09;;;9.35;74.91
78383;BME280;67668;52.294;4.692;2023-02-12T00:17:47;103930.97;;;9.33;74.65
78383;BME280;67668;52.294;4.692;2023-02-12T00:20:12;103929.22;;;9.32;75.16
78383;BME280;67668;52.294;4.692;2023-02-12T00:22:38;103926.59;;;9.32;74.76
78383;BME280;67668;52.294;4.692;2023-02-12T00:25:04;103918.66;;;9.32;74.96
78383;BME280;67668;52.294;4.692;2023-02-12T00:27:32;103931.09;;;9.30;75.06
78383;BME280;67668;52.294;4.692;2023-02-12T00:29:58;103923.16;;;9.30;75.17
78383;BME280;67668;52.294;4.692;2023-02-12T00:32:23;103925.84;;;9.28;75.33
78383;BME280;67668;52.294;4.692;2023-02-12T00:34:48;103923.28;;;9.27;75.54
78383;BME280;67668;52.294;4.692;2023-02-12T00:37:14;103923.28;;;9.27;75.38
78383;BME280;67668;52.294;4.692;2023-02-12T00:39:39;103928.59;;;9.25;75.59
78383;BME280;67668;52.294;4.692;2023-02-12T00:42:06;103922.44;;;9.25;75.41
78383;BME280;67668;52.294;4.692;2023-02-12T00:44:32;103921.63;;;9.24;75.45
78383;BME280;67668;52.294;4.692;2023-02-12T00:46:57;103921.66;;;9.23;75.41
78383;BME280;67668;52.294;4.692;2023-02-12T00:49:24;103919.00;;;9.23;75.34
78383;BME280;67668;52.294;4.692;2023-02-12T00:51:51;103914.63;;;9.22;75.52
78383;BME280;67668;52.294;4.692;2023-02-12T00:54:17;103917.28;;;9.22;75.26
78383;BME280;67668;52.294;4.692;2023-02-12T00:56:44;103924.34;;;9.21;75.67
78383;BME280;67668;52.294;4.692;2023-02-12T00:59:09;103918.22;;;9.21;75.03
78383;BME280;67668;52.294;4.692;2023-02-12T01:04:10;103913.78;;;9.21;75.10
78383;BME280;67668;52.294;4.692;2023-02-12T01:06:35;103915.63;;;9.19;75.43
78383;BME280;67668;52.294;4.692;2023-02-12T01:09:00;103910.41;;;9.18;75.39
78383;BME280;67668;52.294;4.692;2023-02-12T01:11:26;103910.41;;;9.18;75.63
78383;BME280;67668;52.294;4.692;2023-02-12T01:13:51;103908.69;;;9.17;75.24
78383;BME280;67668;52.294;4.692;2023-02-12T01:16:18;103912.22;;;9.16;75.42
78383;BME280;67668;52.294;4.692;2023-02-12T01:18:45;103917.50;;;9.16;75.49
78383;BME280;67668;52.294;4.692;2023-02-12T01:21:20;103916.72;;;9.14;75.61
78383;BME280;67668;52.294;4.692;2023-02-12T01:23:47;103910.50;;;9.15;75.50
78383;BME280;67668;52.294;4.692;2023-02-12T01:26:13;103925.50;;;9.14;75.43
78383;BME280;67668;52.294;4.692;2023-02-12T01:28:40;103924.66;;;9.14;75.11
78383;BME280;67668;52.294;4.692;2023-02-12T01:31:14;103921.13;;;9.13;75.54
78383;BME280;67668;52.294;4.692;2023-02-12T01:33:40;103920.22;;;9.14;75.69
78383;BME280;67668;52.294;4.692;2023-02-12T01:36:07;103917.63;;;9.13;75.31
78383;BME280;67668;52.294;4.692;2023-02-12T01:38:32;103916.75;;;9.12;75.46
78383;BME280;67668;52.294;4.692;2023-02-12T01:41:04;103914.19;;;9.11;75.59
78383;BME280;67668;52.294;4.692;2023-02-12T01:43:30;103916.84;;;9.11;75.54
78383;BME280;67668;52.294;4.692;2023-02-12T01:45:57;103913.34;;;9.10;75.55
78383;BME280;67668;52.294;4.692;2023-02-12T01:48:24;103909.03;;;9.08;75.38
78383;BME280;67668;52.294;4.692;2023-02-12T01:50:53;103918.66;;;9.09;75.17
78383;BME280;67668;52.294;4.692;2023-02-12T01:53:19;103921.28;;;9.09;75.73
78383;BME280;67668;52.294;4.692;2023-02-12T01:55:48;103915.16;;;9.08;75.41
78383;BME280;67668;52.294;4.692;2023-02-12T01:58:16;103915.16;;;9.08;75.58
78383;BME280;67668;52.294;4.692;2023-02-12T02:00:41;103913.44;;;9.07;75.24
78383;BME280;67668;52.294;4.692;2023-02-12T02:03:07;103922.25;;;9.08;75.23
78383;BME280;67668;52.294;4.692;2023-02-12T02:05:46;103912.59;;;9.07;75.29
78383;BME280;67668;52.294;4.692;2023-02-12T02:08:13;103911.72;;;9.06;75.78
78383;BME280;67668;52.294;4.692;2023-02-12T02:10:39;103920.53;;;9.05;75.22
78383;BME280;67668;52.294;4.692;2023-02-12T02:13:04;103914.44;;;9.05;75.12
78383;BME280;67668;52.294;4.692;2023-02-12T02:15:51;103909.16;;;9.05;75.62
78383;BME280;67668;52.294;4.692;2023-02-12T02:18:25;103912.69;;;9.04;75.28
78383;BME280;67668;52.294;4.692;2023-02-12T02:21:17;103915.38;;;9.02;75.39
78383;BME280;67668;52.294;4.692;2023-02-12T02:24:03;103918.88;;;9.03;75.29
78383;BME280;67668;52.294;4.692;2023-02-12T02:29:40;103915.44;;;9.01;75.09
78383;BME280;67668;52.294;4.692;2023-02-12T02:32:26;103920.75;;;9.01;75.95
78383;BME280;67668;52.294;4.692;2023-02-12T02:35:04;103918.09;;;9.01;75.59
78383;BME280;67668;52.294;4.692;2023-02-12T02:37:48;103913.75;;;8.98;76.09
78383;BME280;67668;52.294;4.692;2023-02-12T02:40:22;103909.34;;;8.99;75.35
78383;BME280;67668;52.294;4.692;2023-02-12T02:43:08;103907.66;;;8.98;75.20
78383;BME280;67668;52.294;4.692;2023-02-12T02:45:42;103923.50;;;8.98;75.43
78383;BME280;67668;52.294;4.692;2023-02-12T02:48:23;103909.47;;;8.96;75.95
78383;BME280;67668;52.294;4.692;2023-02-12T02:51:03;103912.06;;;8.97;76.10
78383;BME280;67668;52.294;4.692;2023-02-12T02:53:35;103904.19;;;8.96;75.28
78383;BME280;67668;52.294;4.692;2023-02-12T02:56:06;103900.66;;;8.95;75.35
78383;BME280;67668;52.294;4.692;2023-02-12T02:58:42;103908.59;;;8.95;75.48
78383;BME280;67668;52.294;4.692;2023-02-12T03:01:16;103906.91;;;8.94;75.62
78383;BME280;67668;52.294;4.692;2023-02-12T03:03:52;103902.47;;;8.95;75.88
78383;BME280;67668;52.294;4.692;2023-02-12T03:06:37;103900.75;;;8.94;75.29
78383;BME280;67668;52.294;4.692;2023-02-12T03:09:14;103899.00;;;8.93;75.38
78383;BME280;67668;52.294;4.692;2023-02-12T03:11:41;103894.59;;;8.93;75.46
78383;BME280;67668;52.294;4.692;2023-02-12T03:14:33;103898.13;;;8.92;76.07
78383;BME280;67668;52.294;4.692;2023-02-12T03:17:14;103893.72;;;8.93;75.60
78383;BME280;67668;52.294;4.692;2023-02-12T03:19:45;103885.88;;;8.91;75.62
78383;BME280;67668;52.294;4.692;2023-02-12T03:22:14;103891.19;;;8.90;75.82
78383;BME280;67668;52.294;4.692;2023-02-12T03:24:47;103892.94;;;8.91;75.68
78383;BME280;67668;52.294;4.692;2023-02-12T03:27:59;103883.28;;;8.90;76.16
78383;BME280;67668;52.294;4.692;2023-02-12T03:30:06;103893.84;;;8.90;76.05
78383;BME280;67668;52.294;4.692;2023-02-12T03:32:52;103878.00;;;8.90;75.84
78383;BME280;67668;52.294;4.692;2023-02-12T03:35:24;103886.78;;;8.90;75.56
78383;BME280;67668;52.294;4.692;2023-02-12T03:37:58;103881.53;;;8.89;76.24
78383;BME280;67668;52.294;4.692;2023-02-12T03:40:34;103889.47;;;8.89;75.79
78383;BME280;67668;52.294;4.692;2023-02-12T03:45:43;103884.25;;;8.87;76.11
78383;BME280;67668;52.294;4.692;2023-02-12T03:48:26;103895.69;;;8.88;75.44
78383;BME280;67668;52.294;4.692;2023-02-12T03:51:01;103901.84;;;8.88;76.01
78383;BME280;67668;52.294;4.692;2023-02-12T03:53:29;103893.06;;;8.88;76.25
78383;BME280;67668;52.294;4.692;2023-02-12T03:56:01;103895.69;;;8.88;75.69
78383;BME280;67668;52.294;4.692;2023-02-12T03:58:31;103899.25;;;8.87;75.51
78383;BME280;67668;52.294;4.692;2023-02-12T04:00:59;103896.63;;;8.85;75.55
78383;BME280;67668;52.294;4.692;2023-02-12T04:03:24;103906.28;;;8.86;75.46
78383;BME280;67668;52.294;4.692;2023-02-12T04:05:50;103905.44;;;8.86;75.30
78383;BME280;67668;52.294;4.692;2023-02-12T04:08:16;103906.28;;;8.86;75.46
78383;BME280;67668;52.294;4.692;2023-02-12T04:13:18;103911.66;;;8.85;75.73
78383;BME280;67668;52.294;4.692;2023-02-12T04:18:39;103910.78;;;8.84;75.77
78383;BME280;67668;52.294;4.692;2023-02-12T04:23:46;103924.91;;;8.83;75.65
78383;BME280;67668;52.294;4.692;2023-02-12T04:26:36;103918.72;;;8.84;75.38
78383;BME280;67668;52.294;4.692;2023-02-12T04:32:06;103931.91;;;8.84;75.99
78383;BME280;67668;52.294;4.692;2023-02-12T04:35:02;103931.94;;;8.82;75.69
78383;BME280;67668;52.294;4.692;2023-02-12T04:37:37;103935.47;;;8.83;75.86
78383;BME280;67668;52.294;4.692;2023-02-12T04:40:09;103934.59;;;8.82;76.18
78383;BME280;67668;52.294;4.692;2023-02-12T04:42:43;103946.94;;;8.82;76.27
78383;BME280;67668;52.294;4.692;2023-02-12T04:45:15;103947.78;;;8.82;75.51
78383;BME280;67668;52.294;4.692;2023-02-12T04:47:43;103949.56;;;8.82;75.55
78383;BME280;67668;52.294;4.692;2023-02-12T04:50:08;103946.09;;;8.81;75.94
78383;BME280;67668;52.294;4.692;2023-02-12T04:52:34;103950.50;;;8.81;75.85
78383;BME280;67668;52.294;4.692;2023-02-12T04:54:59;103954.91;;;8.80;76.09
78383;BME280;67668;52.294;4.692;2023-02-12T04:57:24;103946.13;;;8.80;75.67
78383;BME280;67668;52.294;4.692;2023-02-12T04:59:50;103945.28;;;8.79;75.53
78383;BME280;67668;52.294;4.692;2023-02-12T05:02:16;103938.25;;;8.78;75.54
78383;BME280;67668;52.294;4.692;2023-02-12T05:04:41;103940.88;;;8.78;76.17
78383;BME280;67668;52.294;4.692;2023-02-12T05:07:07;103941.84;;;8.77;76.29
78383;BME280;67668;52.294;4.692;2023-02-12T05:09:32;103943.59;;;8.77;76.25
78383;BME280;67668;52.294;4.692;2023-02-12T05:11:57;103948.03;;;8.76;75.95
78383;BME280;67668;52.294;4.692;2023-02-12T05:14:23;103938.38;;;8.75;75.80
78383;BME280;67668;52.294;4.692;2023-02-12T05:16:50;103943.66;;;8.75;75.67
78383;BME280;67668;52.294;4.692;2023-02-12T05:19:15;103934.94;;;8.73;76.32
78383;BME280;67668;52.294;4.692;2023-02-12T05:21:40;103940.22;;;8.73;75.79
78383;BME280;67668;52.294;4.692;2023-02-12T05:24:06;103934.06;;;8.73;76.14
78383;BME280;67668;52.294;4.692;2023-02-12T05:26:31;103942.84;;;8.73;75.73
78383;BME280;67668;52.294;4.692;2023-02-12T05:28:57;103938.47;;;8.72;75.84
78383;BME280;67668;52.294;4.692;2023-02-12T05:31:22;103942.06;;;8.71;76.20
78383;BME280;67668;52.294;4.692;2023-02-12T05:33:48;103938.47;;;8.72;76.21
78383;BME280;67668;52.294;4.692;2023-02-12T05:36:18;103944.69;;;8.71;75.87
78383;BME280;67668;52.294;4.692;2023-02-12T05:38:43;103945.59;;;8.70;75.93
78383;BME280;67668;52.294;4.692;2023-02-12T05:41:11;103947.34;;;8.71;76.26
78383;BME280;67668;52.294;4.692;2023-02-12T05:43:36;103944.69;;;8.71;76.14
78383;BME280;67668;52.294;4.692;2023-02-12T05:46:03;103950.88;;;8.70;75.91
78383;BME280;67668;52.294;4.692;2023-02-12T05:48:29;103948.25;;;8.70;75.85
78383;BME280;67668;52.294;4.692;2023-02-12T05:51:11;103945.59;;;8.70;76.02
78383;BME280;67668;52.294;4.692;2023-02-12T05:53:37;103955.28;;;8.70;75.78
78383;BME280;67668;52.294;4.692;2023-02-12T05:58:31;103950.88;;;8.70;75.62
78383;BME280;67668;52.294;4.692;2023-02-12T06:00:57;103949.16;;;8.69;75.48
78383;BME280;67668;52.294;4.692;2023-02-12T06:03:22;103951.78;;;8.69;75.87
78383;BME280;67668;52.294;4.692;2023-02-12T06:05:50;103955.34;;;8.68;76.19
78383;BME280;67668;52.294;4.692;2023-02-12T06:08:16;103952.69;;;8.68;76.17
78383;BME280;67668;52.294;4.692;2023-02-12T06:10:41;103945.72;;;8.67;75.51
78383;BME280;67668;52.294;4.692;2023-02-12T06:13:06;103954.53;;;8.66;76.12
78383;BME280;67668;52.294;4.692;2023-02-12T06:15:35;103951.91;;;8.66;75.93
78383;BME280;67668;52.294;4.692;2023-02-12T06:18:00;103946.63;;;8.66;75.80
78383;BME280;67668;52.294;4.692;2023-02-12T06:20:25;103947.53;;;8.65;76.00
78383;BME280;67668;52.294;4.692;2023-02-12T06:22:52;103949.25;;;8.66;76.18
78383;BME280;67668;52.294;4.692;2023-02-12T06:25:17;103958.06;;;8.65;76.40
78383;BME280;67668;52.294;4.692;2023-02-12T06:27:42;103951.09;;;8.64;75.98
78383;BME280;67668;52.294;4.692;2023-02-12T06:30:08;103944.88;;;8.65;75.56
78383;BME280;67668;52.294;4.692;2023-02-12T06:32:34;103948.50;;;8.63;75.60
78383;BME280;67668;52.294;4.692;2023-02-12T06:34:59;103943.22;;;8.63;75.96
78383;BME280;67668;52.294;4.692;2023-02-12T06:37:24;103951.13;;;8.63;75.54
78383;BME280;67668;52.294;4.692;2023-02-12T06:39:50;103952.91;;;8.62;76.15
78383;BME280;67668;52.294;4.692;2023-02-12T06:42:15;103958.25;;;8.61;76.01
78383;BME280;67668;52.294;4.692;2023-02-12T06:44:41;103955.53;;;8.62;75.87
78383;BME280;67668;52.294;4.692;2023-02-12T06:47:07;103957.31;;;8.62;75.59
78383;BME280;67668;52.294;4.692;2023-02-12T06:49:32;103965.25;;;8.62;76.36
78383;BME280;67668;52.294;4.692;2023-02-12T06:51:58;103960.91;;;8.61;75.56
78383;BME280;67668;52.294;4.692;2023-02-12T06:54:23;103966.09;;;8.62;75.76
78383;BME280;67668;52.294;4.692;2023-02-12T06:56:49;103967.88;;;8.62;75.91
78383;BME280;67668;52.294;4.692;2023-02-12T06:59:15;103968.75;;;8.62;76.16
78383;BME280;67668;52.294;4.692;2023-02-12T07:01:41;103953.88;;;8.60;75.97
78383;BME280;67668;52.294;4.692;2023-02-12T07:04:07;103961.81;;;8.60;75.71
78383;BME280;67668;52.294;4.692;2023-02-12T07:06:34;103960.94;;;8.59;75.75
78383;BME280;67668;52.294;4.692;2023-02-12T07:09:00;103965.34;;;8.59;76.20
78383;BME280;67668;52.294;4.692;2023-02-12T07:11:29;103960.06;;;8.59;75.60
78383;BME280;67668;52.294;4.692;2023-02-12T07:13:55;103965.34;;;8.59;75.61
78383;BME280;67668;52.294;4.692;2023-02-12T07:16:21;103973.34;;;8.57;75.84
78383;BME280;67668;52.294;4.692;2023-02-12T07:18:47;103973.34;;;8.57;76.21
78383;BME280;67668;52.294;4.692;2023-02-12T07:21:13;103975.97;;;8.57;75.79
78383;BME280;67668;52.294;4.692;2023-02-12T07:23:39;103976.88;;;8.56;76.14
78383;BME280;67668;52.294;4.692;2023-02-12T07:26:15;103979.53;;;8.56;75.75
78383;BME280;67668;52.294;4.692;2023-02-12T07:28:41;103979.53;;;8.56;75.56
78383;BME280;67668;52.294;4.692;2023-02-12T07:33:37;103994.47;;;8.57;75.74
78383;BME280;67668;52.294;4.692;2023-02-12T07:36:05;103990.09;;;8.56;76.33
78383;BME280;67668;52.294;4.692;2023-02-12T07:38:30;103992.72;;;8.56;75.95
78383;BME280;67668;52.294;4.692;2023-02-12T07:41:04;103997.09;;;8.57;75.82
78383;BME280;67668;52.294;4.692;2023-02-12T07:43:30;103998.88;;;8.57;75.69
78383;BME280;67668;52.294;4.692;2023-02-12T07:45:55;104002.38;;;8.57;76.21
78383;BME280;67668;52.294;4.692;2023-02-12T07:48:21;103999.75;;;8.57;76.11
78383;BME280;67668;52.294;4.692;2023-02-12T07:50:47;104004.16;;;8.57;76.33
78383;BME280;67668;52.294;4.692;2023-02-12T07:53:12;104008.53;;;8.58;75.65
78383;BME280;67668;52.294;4.692;2023-02-12T07:55:37;104007.66;;;8.57;75.61
78383;BME280;67668;52.294;4.692;2023-02-12T07:58:03;104005.91;;;8.56;75.08
78383;BME280;67668;52.294;4.692;2023-02-12T08:00:28;104010.31;;;8.57;75.93
78383;BME280;67668;52.294;4.692;2023-02-12T08:02:53;104007.66;;;8.57;76.15
78383;BME280;67668;52.294;4.692;2023-02-12T08:05:19;104010.31;;;8.57;75.48
78383;BME280;67668;52.294;4.692;2023-02-12T08:07:44;104007.66;;;8.57;75.59
78383;BME280;67668;52.294;4.692;2023-02-12T08:10:10;104012.94;;;8.57;75.39
78383;BME280;67668;52.294;4.692;2023-02-12T08:12:35;104017.34;;;8.57;75.58
78383;BME280;67668;52.294;4.692;2023-02-12T08:15:01;104019.09;;;8.58;75.42
78383;BME280;67668;52.294;4.692;2023-02-12T08:17:26;104022.59;;;8.58;75.34
78383;BME280;67668;52.294;4.692;2023-02-12T08:19:52;104022.59;;;8.58;75.40
78383;BME280;67668;52.294;4.692;2023-02-12T08:22:17;104020.78;;;8.59;75.62
78383;BME280;67668;52.294;4.692;2023-02-12T08:24:43;104017.31;;;8.58;75.44
78383;BME280;67668;52.294;4.692;2023-02-12T08:27:08;104021.66;;;8.59;75.80
78383;BME280;67668;52.294;4.692;2023-02-12T08:29:33;104021.66;;;8.59;75.33
78383;BME280;67668;52.294;4.692;2023-02-12T08:32:00;104021.66;;;8.59;75.63
78383;BME280;67668;52.294;4.692;2023-02-12T08:34:31;104024.28;;;8.59;75.53
78383;BME280;67668;52.294;4.692;2023-02-12T08:36:58;104026.94;;;8.59;75.61
78383;BME280;67668;52.294;4.692;2023-02-12T08:39:25;104018.22;;;8.57;75.68
78383;BME280;67668;52.294;4.692;2023-02-12T08:41:55;104026.06;;;8.59;75.39
78383;BME280;67668;52.294;4.692;2023-02-12T08:44:21;104032.22;;;8.59;74.36
78383;BME280;67668;52.294;4.692;2023-02-12T08:46:48;104034.00;;;8.59;74.69
78383;BME280;67668;52.294;4.692;2023-02-12T08:49:17;104039.28;;;8.59;74.13
78383;BME280;67668;52.294;4.692;2023-02-12T08:51:46;104041.00;;;8.60;74.17
78383;BME280;67668;52.294;4.692;2023-02-12T08:54:15;104039.22;;;8.60;73.74
78383;BME280;67668;52.294;4.692;2023-02-12T08:56:41;104049.78;;;8.60;73.89
78383;BME280;67668;52.294;4.692;2023-02-12T08:59:10;104048.03;;;8.61;73.25
78383;BME280;67668;52.294;4.692;2023-02-12T09:01:36;104055.00;;;8.62;73.33
78383;BME280;67668;52.294;4.692;2023-02-12T09:04:03;104048.81;;;8.63;73.52
78383;BME280;67668;52.294;4.692;2023-02-12T09:06:32;104053.22;;;8.62;73.43
78383;BME280;67668;52.294;4.692;2023-02-12T09:08:58;104052.34;;;8.63;73.36
78383;BME280;67668;52.294;4.692;2023-02-12T09:11:24;104056.72;;;8.64;73.33
78383;BME280;67668;52.294;4.692;2023-02-12T09:13:55;104050.56;;;8.64;73.20
78383;BME280;67668;52.294;4.692;2023-02-12T09:16:21;104052.28;;;8.65;73.93
78383;BME280;67668;52.294;4.692;2023-02-12T09:18:46;104056.72;;;8.64;74.07
78383;BME280;67668;52.294;4.692;2023-02-12T09:21:13;104057.50;;;8.66;73.40
78383;BME280;67668;52.294;4.692;2023-02-12T09:23:40;104057.47;;;8.68;73.35
78383;BME280;67668;52.294;4.692;2023-02-12T09:26:06;104055.63;;;8.70;73.82
78383;BME280;67668;52.294;4.692;2023-02-12T09:28:33;104051.22;;;8.70;73.70
78383;BME280;67668;52.294;4.692;2023-02-12T09:31:06;104053.78;;;8.72;73.91
78383;BME280;67668;52.294;4.692;2023-02-12T09:33:32;104057.25;;;8.74;73.66
78383;BME280;67668;52.294;4.692;2023-02-12T09:36:01;104060.78;;;8.74;73.64
78383;BME280;67668;52.294;4.692;2023-02-12T09:38:27;104055.59;;;8.71;71.18
78383;BME280;67668;52.294;4.692;2023-02-12T09:43:48;104057.19;;;8.75;73.66
78383;BME280;67668;52.294;4.692;2023-02-12T09:51:49;104056.06;;;8.82;74.17
78383;BME280;67668;52.294;4.692;2023-02-12T09:54:20;104054.28;;;8.85;74.32
78383;BME280;67668;52.294;4.692;2023-02-12T09:56:51;104058.56;;;8.87;73.89
78383;BME280;67668;52.294;4.692;2023-02-12T09:59:38;104055.88;;;8.89;74.35
78383;BME280;67668;52.294;4.692;2023-02-12T10:02:11;104058.41;;;8.92;74.45
78383;BME280;67668;52.294;4.692;2023-02-12T10:04:38;104056.63;;;8.92;74.24
78383;BME280;67668;52.294;4.692;2023-02-12T10:17:46;104065.09;;;9.02;74.01
78383;BME280;67668;52.294;4.692;2023-02-12T10:23:26;104058.00;;;9.04;73.73
78383;BME280;67668;52.294;4.692;2023-02-12T10:25:58;104060.66;;;9.04;73.73
78383;BME280;67668;52.294;4.692;2023-02-12T10:28:34;104059.75;;;9.05;73.28
78383;BME280;67668;52.294;4.692;2023-02-12T10:31:06;104052.72;;;9.04;73.01
78383;BME280;67668;52.294;4.692;2023-02-12T10:38:46;104053.47;;;9.07;72.61
78383;BME280;67668;52.294;4.692;2023-02-12T10:41:15;104054.34;;;9.08;71.92
78383;BME280;67668;52.294;4.692;2023-02-12T10:43:42;104062.28;;;9.08;71.89
78383;BME280;67668;52.294;4.692;2023-02-12T10:46:15;104060.44;;;9.10;71.84
78383;BME280;67668;52.294;4.692;2023-02-12T10:48:43;104056.88;;;9.11;71.67
78383;BME280;67668;52.294;4.692;2023-02-12T10:51:32;104057.75;;;9.11;71.52
78383;BME280;67668;52.294;4.692;2023-02-12T10:54:30;104049.75;;;9.13;71.65
78383;BME280;67668;52.294;4.692;2023-02-12T10:56:57;104055.91;;;9.13;71.83
78383;BME280;67668;52.294;4.692;2023-02-12T10:59:24;104060.28;;;9.14;71.62
78383;BME280;67668;52.294;4.692;2023-02-12T11:01:49;104068.19;;;9.14;71.70
78383;BME280;67668;52.294;4.692;2023-02-12T11:04:24;104060.19;;;9.16;71.53
78383;BME280;67668;52.294;4.692;2023-02-12T11:06:59;104054.91;;;9.16;71.40
78383;BME280;67668;52.294;4.692;2023-02-12T11:09:30;104049.53;;;9.19;71.33
78383;BME280;67668;52.294;4.692;2023-02-12T11:11:56;104053.91;;;9.20;71.31
78383;BME280;67668;52.294;4.692;2023-02-12T11:14:23;104051.25;;;9.20;71.76
78383;BME280;67668;52.294;4.692;2023-02-12T11:16:52;104055.63;;;9.21;71.31
78383;BME280;67668;52.294;4.692;2023-02-12T11:19:20;104053.78;;;9.23;70.98
78383;BME280;67668;52.294;4.692;2023-02-12T11:21:48;104051.94;;;9.25;71.64
78383;BME280;67668;52.294;4.692;2023-02-12T11:24:21;104046.66;;;9.25;71.38
78383;BME280;67668;52.294;4.692;2023-02-12T11:26:51;104036.91;;;9.27;71.74
78383;BME280;67668;52.294;4.692;2023-02-12T11:29:20;104043.91;;;9.28;71.62
78383;BME280;67668;52.294;4.692;2023-02-12T11:32:01;104039.47;;;9.28;71.69
78383;BME280;67668;52.294;4.692;2023-02-12T11:34:27;104045.63;;;9.29;71.39
78383;BME280;67668;52.294;4.692;2023-02-12T11:36:54;104043.81;;;9.31;71.84
78383;BME280;67668;52.294;4.692;2023-02-12T11:39:22;104042.00;;;9.31;71.75
78383;BME280;67668;52.294;4.692;2023-02-12T11:42:00;104035.91;;;9.31;71.14
78383;BME280;67668;52.294;4.692;2023-02-12T11:44:39;104042.84;;;9.33;71.62
78383;BME280;67668;52.294;4.692;2023-02-12T11:47:16;104037.47;;;9.35;71.95
78383;BME280;67668;52.294;4.692;2023-02-12T11:49:50;104042.66;;;9.38;71.01
78383;BME280;67668;52.294;4.692;2023-02-12T11:52:36;104034.72;;;9.38;70.58
78383;BME280;67668;52.294;4.692;2023-02-12T11:55:07;104038.19;;;9.40;70.97
78383;BME280;67668;52.294;4.692;2023-02-12T11:57:47;104036.34;;;9.42;70.89
78383;BME280;67668;52.294;4.692;2023-02-12T12:00:16;104038.06;;;9.43;70.38
78383;BME280;67668;52.294;4.692;2023-02-12T12:02:54;104030.16;;;9.43;70.54
78383;BME280;67668;52.294;4.692;2023-02-12T12:05:26;104028.31;;;9.45;71.06
78383;BME280;67668;52.294;4.692;2023-02-12T12:07:58;104034.41;;;9.47;70.32
78383;BME280;67668;52.294;4.692;2023-02-12T12:10:40;104034.41;;;9.47;69.90
78383;BME280;67668;52.294;4.692;2023-02-12T12:13:15;104029.13;;;9.47;69.33
78383;BME280;67668;52.294;4.692;2023-02-12T12:15:47;104022.97;;;9.47;67.29
78383;BME280;67668;52.294;4.692;2023-02-12T12:18:36;104025.53;;;9.48;68.02
78383;BME280;67668;52.294;4.692;2023-02-12T12:21:39;104021.06;;;9.50;68.00
78383;BME280;67668;52.294;4.692;2023-02-12T12:26:52;104019.22;;;9.52;67.48
78383;BME280;67668;52.294;4.692;2023-02-12T12:29:54;104024.41;;;9.55;68.70
78383;BME280;67668;52.294;4.692;2023-02-12T12:32:25;104027.78;;;9.59;67.91
78383;BME280;67668;52.294;4.692;2023-02-12T12:34:59;104015.41;;;9.61;67.36
78383;BME280;67668;52.294;4.692;2023-02-12T12:40:29;104014.44;;;9.62;67.74
78383;BME280;67668;52.294;4.692;2023-02-12T12:43:13;104010.03;;;9.62;66.16
78383;BME280;67668;52.294;4.692;2023-02-12T12:46:10;104016.06;;;9.66;68.88
78383;BME280;67668;52.294;4.692;2023-02-12T12:48:50;104002.81;;;9.67;67.24
78383;BME280;67668;52.294;4.692;2023-02-12T12:54:11;104003.44;;;9.74;70.16
78383;BME280;67668;52.294;4.692;2023-02-12T12:56:48;104004.22;;;9.76;69.52
78383;BME280;67668;52.294;4.692;2023-02-12T13:08:07;103995.13;;;9.83;68.75
78383;BME280;67668;52.294;4.692;2023-02-12T13:10:59;103994.25;;;9.82;65.68
78383;BME280;67668;52.294;4.692;2023-02-12T13:13:37;103989.75;;;9.84;68.13
78383;BME280;67668;52.294;4.692;2023-02-12T13:21:41;103990.50;;;9.88;69.09
78383;BME280;67668;52.294;4.692;2023-02-12T13:27:03;103988.59;;;9.92;69.70
78383;BME280;67668;52.294;4.692;2023-02-12T13:29:34;103981.50;;;9.94;70.67
78383;BME280;67668;52.294;4.692;2023-02-12T13:32:10;103979.63;;;9.96;70.45
78383;BME280;67668;52.294;4.692;2023-02-12T13:34:38;103974.34;;;9.96;70.26
78383;BME280;67668;52.294;4.692;2023-02-12T13:37:04;103972.47;;;9.98;70.75
78383;BME280;67668;52.294;4.692;2023-02-12T13:39:37;103972.47;;;9.98;69.77
78383;BME280;67668;52.294;4.692;2023-02-12T13:44:55;103977.78;;;9.98;69.61
78383;BME280;67668;52.294;4.692;2023-02-12T13:47:48;103973.31;;;10.00;69.72
78383;BME280;67668;52.294;4.692;2023-02-12T13:50:40;103963.59;;;10.00;70.14
78383;BME280;67668;52.294;4.692;2023-02-12T13:53:29;103960.84;;;10.02;69.80
78383;BME280;67668;52.294;4.692;2023-02-12T13:58:52;103953.78;;;10.02;69.68
78383;BME280;67668;52.294;4.692;2023-02-12T14:01:38;103958.16;;;10.03;70.30
78383;BME280;67668;52.294;4.692;2023-02-12T14:04:37;103947.63;;;10.02;68.49
78383;BME280;67668;52.294;4.692;2023-02-12T14:07:08;103948.44;;;10.04;69.33
78383;BME280;67668;52.294;4.692;2023-02-12T14:12:34;103952.91;;;10.02;68.07
78383;BME280;67668;52.294;4.692;2023-02-12T14:15:39;103949.34;;;10.03;69.97
78383;BME280;67668;52.294;4.692;2023-02-12T14:18:21;103947.63;;;10.02;68.34
78383;BME280;67668;52.294;4.692;2023-02-12T14:20:47;103950.22;;;10.03;69.35
78383;BME280;67668;52.294;4.692;2023-02-12T14:26:04;103940.44;;;10.05;69.50
78383;BME280;67668;52.294;4.692;2023-02-12T14:38:59;103936.03;;;10.04;69.70
78383;BME280;67668;52.294;4.692;2023-02-12T14:41:28;103936.19;;;10.01;66.54
78383;BME280;67668;52.294;4.692;2023-02-12T14:46:55;103937.88;;;10.04;69.77
78383;BME280;67668;52.294;4.692;2023-02-12T14:52:06;103932.50;;;10.05;69.81
78383;BME280;67668;52.294;4.692;2023-02-12T14:57:23;103935.09;;;10.07;70.21
78383;BME280;67668;52.294;4.692;2023-02-12T14:59:51;103933.31;;;10.07;69.99
78383;BME280;67668;52.294;4.692;2023-02-12T15:02:23;103928.94;;;10.06;70.24
78383;BME280;67668;52.294;4.692;2023-02-12T15:04:50;103930.66;;;10.07;70.14